sensor_id;sensor_type;location;lat;lon;timestamp;P1;durP1;ratioP1;P2;durP2;ratioP2
42614;SDS011;28754;47.700;7.924;2023-06-10T00:01:56;6.85;;;3.50;;
42614;SDS011;28754;47.700;7.924;2023-06-10T00:04:45;4.60;;;3.55;;
42614;SDS011;28754;47.700;7.924;2023-06-10T00:07:32;4.05;;;3.00;;
42614;SDS011;28754;47.700;7.924;2023-06-10T00:10:19;11.65;;;3.15;;
42614;SDS011;28754;47.700;7.924;2023-06-10T00:13:06;6.60;;;3.20;;
42614;SDS011;28754;47.700;7.924;2023-06-10T00:15:57;4.95;;;3.30;;
42614;SDS011;28754;47.700;7.924;2023-06-10T00:18:43;5.65;;;3.30;;
42614;SDS011;28754;47.700;7.924;2023-06-10T00:21:31;4.00;;;2.70;;
42614;SDS011;28754;47.700;7.924;2023-06-10T00:24:26;4.35;;;3.00;;
42614;SDS011;28754;47.700;7.924;2023-06-10T00:27:12;4.22;;;3.25;;
42614;SDS011;28754;47.700;7.924;2023-06-10T00:29:59;4.90;;;2.95;;
42614;SDS011;28754;47.700;7.924;2023-06-10T00:32:46;5.75;;;2.95;;
42614;SDS011;28754;47.700;7.924;2023-06-10T00:35:33;4.53;;;3.28;;
42614;SDS011;28754;47.700;7.924;2023-06-10T00:38:20;5.95;;;2.78;;
42614;SDS011;28754;47.700;7.924;2023-06-10T00:41:06;6.00;;;3.80;;
42614;SDS011;28754;47.700;7.924;2023-06-10T00:43:53;3.72;;;3.10;;
42614;SDS011;28754;47.700;7.924;2023-06-10T00:46:40;5.32;;;3.15;;
42614;SDS011;28754;47.700;7.924;2023-06-10T00:49:27;8.00;;;3.10;;
42614;SDS011;28754;47.700;7.924;2023-06-10T00:52:14;4.85;;;2.92;;
42614;SDS011;28754;47.700;7.924;2023-06-10T00:55:03;4.53;;;3.10;;
42614;SDS011;28754;47.700;7.924;2023-06-10T00:57:50;6.65;;;3.70;;
42614;SDS011;28754;47.700;7.924;2023-06-10T01:00:37;7.07;;;3.80;;
42614;SDS011;28754;47.700;7.924;2023-06-10T01:03:24;7.63;;;2.50;;
42614;SDS011;28754;47.700;7.924;2023-06-10T01:06:18;5.43;;;3.20;;
42614;SDS011;28754;47.700;7.924;2023-06-10T01:12:58;5.63;;;3.20;;
42614;SDS011;28754;47.700;7.924;2023-06-10T01:15:50;4.10;;;3.20;;
42614;SDS011;28754;47.700;7.924;2023-06-10T01:18:38;4.22;;;3.03;;
42614;SDS011;28754;47.700;7.924;2023-06-10T01:21:27;4.60;;;3.75;;
42614;SDS011;28754;47.700;7.924;2023-06-10T01:24:15;3.78;;;3.15;;
42614;SDS011;28754;47.700;7.924;2023-06-10T01:27:05;4.03;;;3.00;;
42614;SDS011;28754;47.700;7.924;2023-06-10T01:30:09;6.22;;;3.72;;
42614;SDS011;28754;47.700;7.924;2023-06-10T01:33:09;4.28;;;3.35;;
42614;SDS011;28754;47.700;7.924;2023-06-10T01:35:59;5.75;;;4.10;;
42614;SDS011;28754;47.700;7.924;2023-06-10T01:38:49;5.57;;;3.47;;
42614;SDS011;28754;47.700;7.924;2023-06-10T01:41:39;4.82;;;3.25;;
42614;SDS011;28754;47.700;7.924;2023-06-10T01:44:26;5.78;;;3.78;;
42614;SDS011;28754;47.700;7.924;2023-06-10T01:47:13;5.63;;;3.10;;
42614;SDS011;28754;47.700;7.924;2023-06-10T01:49:59;4.13;;;3.15;;
42614;SDS011;28754;47.700;7.924;2023-06-10T01:52:47;9.02;;;4.00;;
42614;SDS011;28754;47.700;7.924;2023-06-10T01:55:34;4.32;;;3.35;;
42614;SDS011;28754;47.700;7.924;2023-06-10T01:58:21;6.82;;;4.53;;
42614;SDS011;28754;47.700;7.924;2023-06-10T02:01:07;5.93;;;4.28;;
42614;SDS011;28754;47.700;7.924;2023-06-10T02:03:56;5.90;;;3.30;;
42614;SDS011;28754;47.700;7.924;2023-06-10T02:06:43;7.28;;;3.78;;
42614;SDS011;28754;47.700;7.924;2023-06-10T02:09:31;7.50;;;3.72;;
42614;SDS011;28754;47.700;7.924;2023-06-10T02:12:20;7.97;;;3.38;;
42614;SDS011;28754;47.700;7.924;2023-06-10T02:15:07;6.00;;;3.97;;
42614;SDS011;28754;47.700;7.924;2023-06-10T02:17:54;5.05;;;3.65;;
42614;SDS011;28754;47.700;7.924;2023-06-10T02:20:41;5.45;;;3.00;;
42614;SDS011;28754;47.700;7.924;2023-06-10T02:23:28;6.88;;;3.85;;
42614;SDS011;28754;47.700;7.924;2023-06-10T02:26:15;4.95;;;4.40;;
42614;SDS011;28754;47.700;7.924;2023-06-10T02:29:01;5.22;;;3.95;;
42614;SDS011;28754;47.700;7.924;2023-06-10T02:31:49;4.40;;;3.65;;
42614;SDS011;28754;47.700;7.924;2023-06-10T02:34:38;5.28;;;3.88;;
42614;SDS011;28754;47.700;7.924;2023-06-10T02:37:26;7.03;;;3.65;;
42614;SDS011;28754;47.700;7.924;2023-06-10T02:40:14;7.10;;;3.83;;
42614;SDS011;28754;47.700;7.924;2023-06-10T02:43:01;5.40;;;4.05;;
42614;SDS011;28754;47.700;7.924;2023-06-10T02:45:48;5.72;;;4.22;;
42614;SDS011;28754;47.700;7.924;2023-06-10T02:48:43;5.10;;;3.70;;
42614;SDS011;28754;47.700;7.924;2023-06-10T02:51:31;8.77;;;4.18;;
42614;SDS011;28754;47.700;7.924;2023-06-10T02:54:21;4.60;;;3.22;;
42614;SDS011;28754;47.700;7.924;2023-06-10T02:57:08;9.82;;;4.13;;
42614;SDS011;28754;47.700;7.924;2023-06-10T02:59:56;7.47;;;4.03;;
42614;SDS011;28754;47.700;7.924;2023-06-10T03:02:45;4.25;;;3.60;;
42614;SDS011;28754;47.700;7.924;2023-06-10T03:05:32;11.32;;;4.68;;
42614;SDS011;28754;47.700;7.924;2023-06-10T03:08:22;5.57;;;3.45;;
42614;SDS011;28754;47.700;7.924;2023-06-10T03:11:09;6.20;;;3.83;;
42614;SDS011;28754;47.700;7.924;2023-06-10T03:13:57;4.70;;;4.05;;
42614;SDS011;28754;47.700;7.924;2023-06-10T03:16:45;7.22;;;3.85;;
42614;SDS011;28754;47.700;7.924;2023-06-10T03:19:32;5.80;;;3.75;;
42614;SDS011;28754;47.700;7.924;2023-06-10T03:22:20;5.70;;;3.72;;
42614;SDS011;28754;47.700;7.924;2023-06-10T03:25:24;4.07;;;3.58;;
42614;SDS011;28754;47.700;7.924;2023-06-10T03:28:13;6.10;;;4.32;;
42614;SDS011;28754;47.700;7.924;2023-06-10T03:31:01;6.70;;;4.13;;
42614;SDS011;28754;47.700;7.924;2023-06-10T03:33:51;5.97;;;4.85;;
42614;SDS011;28754;47.700;7.924;2023-06-10T03:36:38;8.50;;;4.00;;
42614;SDS011;28754;47.700;7.924;2023-06-10T03:39:28;5.80;;;4.50;;
42614;SDS011;28754;47.700;7.924;2023-06-10T03:42:17;7.47;;;4.18;;
42614;SDS011;28754;47.700;7.924;2023-06-10T03:45:04;8.07;;;4.82;;
42614;SDS011;28754;47.700;7.924;2023-06-10T03:47:54;6.35;;;4.80;;
42614;SDS011;28754;47.700;7.924;2023-06-10T03:50:45;5.55;;;4.13;;
42614;SDS011;28754;47.700;7.924;2023-06-10T03:53:33;6.05;;;4.05;;
42614;SDS011;28754;47.700;7.924;2023-06-10T03:56:20;6.80;;;4.85;;
42614;SDS011;28754;47.700;7.924;2023-06-10T03:59:07;4.95;;;3.97;;
42614;SDS011;28754;47.700;7.924;2023-06-10T04:01:54;4.45;;;3.92;;
42614;SDS011;28754;47.700;7.924;2023-06-10T04:04:40;6.63;;;4.47;;
42614;SDS011;28754;47.700;7.924;2023-06-10T04:07:27;6.55;;;4.75;;
42614;SDS011;28754;47.700;7.924;2023-06-10T04:10:14;6.60;;;5.18;;
42614;SDS011;28754;47.700;7.924;2023-06-10T04:13:01;8.00;;;4.72;;
42614;SDS011;28754;47.700;7.924;2023-06-10T04:15:53;5.80;;;4.95;;
42614;SDS011;28754;47.700;7.924;2023-06-10T04:18:42;7.65;;;4.65;;
42614;SDS011;28754;47.700;7.924;2023-06-10T04:21:30;5.47;;;4.65;;
42614;SDS011;28754;47.700;7.924;2023-06-10T04:24:17;6.18;;;4.72;;
42614;SDS011;28754;47.700;7.924;2023-06-10T04:27:05;6.55;;;4.53;;
42614;SDS011;28754;47.700;7.924;2023-06-10T04:29:52;6.32;;;4.70;;
42614;SDS011;28754;47.700;7.924;2023-06-10T04:32:39;4.93;;;3.83;;
42614;SDS011;28754;47.700;7.924;2023-06-10T04:35:28;6.50;;;4.57;;
42614;SDS011;28754;47.700;7.924;2023-06-10T04:38:18;7.25;;;3.83;;
42614;SDS011;28754;47.700;7.924;2023-06-10T04:41:05;4.18;;;3.78;;
42614;SDS011;28754;47.700;7.924;2023-06-10T04:43:54;6.88;;;5.20;;
42614;SDS011;28754;47.700;7.924;2023-06-10T04:46:41;5.50;;;4.13;;
42614;SDS011;28754;47.700;7.924;2023-06-10T04:49:28;6.72;;;4.35;;
42614;SDS011;28754;47.700;7.924;2023-06-10T04:52:15;5.55;;;4.53;;
42614;SDS011;28754;47.700;7.924;2023-06-10T04:55:02;7.60;;;4.28;;
42614;SDS011;28754;47.700;7.924;2023-06-10T04:57:49;10.52;;;5.28;;
42614;SDS011;28754;47.700;7.924;2023-06-10T05:00:36;6.70;;;4.28;;
42614;SDS011;28754;47.700;7.924;2023-06-10T05:03:23;5.65;;;4.60;;
42614;SDS011;28754;47.700;7.924;2023-06-10T05:06:09;7.28;;;4.45;;
42614;SDS011;28754;47.700;7.924;2023-06-10T05:08:56;6.15;;;4.80;;
42614;SDS011;28754;47.700;7.924;2023-06-10T05:11:43;8.30;;;4.80;;
42614;SDS011;28754;47.700;7.924;2023-06-10T05:14:30;5.90;;;4.57;;
42614;SDS011;28754;47.700;7.924;2023-06-10T05:17:17;5.28;;;4.47;;
42614;SDS011;28754;47.700;7.924;2023-06-10T05:20:04;6.55;;;4.53;;
42614;SDS011;28754;47.700;7.924;2023-06-10T05:22:52;5.95;;;4.72;;
42614;SDS011;28754;47.700;7.924;2023-06-10T05:25:38;6.88;;;4.57;;
42614;SDS011;28754;47.700;7.924;2023-06-10T05:28:25;6.05;;;5.07;;
42614;SDS011;28754;47.700;7.924;2023-06-10T05:31:12;5.78;;;4.05;;
42614;SDS011;28754;47.700;7.924;2023-06-10T05:33:59;6.80;;;4.82;;
42614;SDS011;28754;47.700;7.924;2023-06-10T05:36:45;5.75;;;4.97;;
42614;SDS011;28754;47.700;7.924;2023-06-10T05:39:32;5.18;;;4.55;;
42614;SDS011;28754;47.700;7.924;2023-06-10T05:42:19;6.28;;;4.68;;
42614;SDS011;28754;47.700;7.924;2023-06-10T05:45:06;7.65;;;3.92;;
42614;SDS011;28754;47.700;7.924;2023-06-10T05:47:53;7.50;;;4.53;;
42614;SDS011;28754;47.700;7.924;2023-06-10T05:50:39;4.90;;;3.95;;
42614;SDS011;28754;47.700;7.924;2023-06-10T05:53:28;6.43;;;4.97;;
42614;SDS011;28754;47.700;7.924;2023-06-10T05:56:15;7.00;;;4.20;;
42614;SDS011;28754;47.700;7.924;2023-06-10T05:59:01;8.20;;;4.72;;
42614;SDS011;28754;47.700;7.924;2023-06-10T06:01:48;5.43;;;4.15;;
42614;SDS011;28754;47.700;7.924;2023-06-10T06:04:36;5.65;;;4.70;;
42614;SDS011;28754;47.700;7.924;2023-06-10T06:07:22;5.55;;;4.80;;
42614;SDS011;28754;47.700;7.924;2023-06-10T06:10:09;5.25;;;3.97;;
42614;SDS011;28754;47.700;7.924;2023-06-10T06:12:56;6.82;;;4.05;;
42614;SDS011;28754;47.700;7.924;2023-06-10T06:15:43;4.72;;;3.92;;
42614;SDS011;28754;47.700;7.924;2023-06-10T06:18:30;4.78;;;3.60;;
42614;SDS011;28754;47.700;7.924;2023-06-10T06:21:18;5.93;;;4.53;;
42614;SDS011;28754;47.700;7.924;2023-06-10T06:24:05;5.38;;;4.20;;
42614;SDS011;28754;47.700;7.924;2023-06-10T06:26:52;7.43;;;4.55;;
42614;SDS011;28754;47.700;7.924;2023-06-10T06:29:38;5.60;;;4.05;;
42614;SDS011;28754;47.700;7.924;2023-06-10T06:32:25;6.75;;;4.60;;
42614;SDS011;28754;47.700;7.924;2023-06-10T06:35:13;5.05;;;4.43;;
42614;SDS011;28754;47.700;7.924;2023-06-10T06:38:00;4.95;;;3.92;;
42614;SDS011;28754;47.700;7.924;2023-06-10T06:40:49;6.57;;;4.45;;
42614;SDS011;28754;47.700;7.924;2023-06-10T06:43:35;5.68;;;4.25;;
42614;SDS011;28754;47.700;7.924;2023-06-10T06:46:41;4.43;;;4.03;;
42614;SDS011;28754;47.700;7.924;2023-06-10T06:49:27;6.00;;;4.20;;
42614;SDS011;28754;47.700;7.924;2023-06-10T06:52:15;5.57;;;4.00;;
42614;SDS011;28754;47.700;7.924;2023-06-10T06:55:02;4.75;;;4.22;;
42614;SDS011;28754;47.700;7.924;2023-06-10T06:57:48;5.13;;;3.67;;
42614;SDS011;28754;47.700;7.924;2023-06-10T07:00:35;4.88;;;3.53;;
42614;SDS011;28754;47.700;7.924;2023-06-10T07:03:22;4.18;;;3.58;;
42614;SDS011;28754;47.700;7.924;2023-06-10T07:06:08;6.72;;;4.30;;
42614;SDS011;28754;47.700;7.924;2023-06-10T07:08:56;4.70;;;3.67;;
42614;SDS011;28754;47.700;7.924;2023-06-10T07:11:43;5.30;;;4.25;;
42614;SDS011;28754;47.700;7.924;2023-06-10T07:14:29;4.90;;;4.22;;
42614;SDS011;28754;47.700;7.924;2023-06-10T07:17:16;5.18;;;3.72;;
42614;SDS011;28754;47.700;7.924;2023-06-10T07:20:03;5.85;;;4.10;;
42614;SDS011;28754;47.700;7.924;2023-06-10T07:22:51;5.70;;;4.10;;
42614;SDS011;28754;47.700;7.924;2023-06-10T07:25:37;8.38;;;4.00;;
42614;SDS011;28754;47.700;7.924;2023-06-10T07:28:24;5.65;;;4.45;;
42614;SDS011;28754;47.700;7.924;2023-06-10T07:31:11;8.10;;;4.65;;
42614;SDS011;28754;47.700;7.924;2023-06-10T07:33:58;5.05;;;4.45;;
42614;SDS011;28754;47.700;7.924;2023-06-10T07:36:45;7.35;;;4.63;;
42614;SDS011;28754;47.700;7.924;2023-06-10T07:39:31;6.53;;;4.82;;
42614;SDS011;28754;47.700;7.924;2023-06-10T07:42:18;9.15;;;5.25;;
42614;SDS011;28754;47.700;7.924;2023-06-10T07:45:05;4.45;;;3.58;;
42614;SDS011;28754;47.700;7.924;2023-06-10T07:47:52;4.78;;;4.28;;
42614;SDS011;28754;47.700;7.924;2023-06-10T07:50:39;5.38;;;4.10;;
42614;SDS011;28754;47.700;7.924;2023-06-10T07:53:26;7.88;;;4.38;;
42614;SDS011;28754;47.700;7.924;2023-06-10T07:56:13;5.28;;;4.22;;
42614;SDS011;28754;47.700;7.924;2023-06-10T07:58:59;7.75;;;4.43;;
42614;SDS011;28754;47.700;7.924;2023-06-10T08:01:46;6.35;;;4.25;;
42614;SDS011;28754;47.700;7.924;2023-06-10T08:04:33;5.50;;;4.30;;
42614;SDS011;28754;47.700;7.924;2023-06-10T08:07:21;5.65;;;4.80;;
42614;SDS011;28754;47.700;7.924;2023-06-10T08:10:08;6.22;;;4.68;;
42614;SDS011;28754;47.700;7.924;2023-06-10T08:12:54;5.18;;;4.60;;
42614;SDS011;28754;47.700;7.924;2023-06-10T08:15:41;9.02;;;5.72;;
42614;SDS011;28754;47.700;7.924;2023-06-10T08:18:28;4.72;;;4.13;;
42614;SDS011;28754;47.700;7.924;2023-06-10T08:21:15;5.47;;;4.72;;
42614;SDS011;28754;47.700;7.924;2023-06-10T08:24:02;5.57;;;5.00;;
42614;SDS011;28754;47.700;7.924;2023-06-10T08:26:49;6.80;;;4.65;;
42614;SDS011;28754;47.700;7.924;2023-06-10T08:29:36;6.35;;;4.78;;
42614;SDS011;28754;47.700;7.924;2023-06-10T08:32:22;7.55;;;4.10;;
42614;SDS011;28754;47.700;7.924;2023-06-10T08:35:09;5.90;;;4.82;;
42614;SDS011;28754;47.700;7.924;2023-06-10T08:37:56;8.02;;;7.10;;
42614;SDS011;28754;47.700;7.924;2023-06-10T08:40:42;5.78;;;5.18;;
42614;SDS011;28754;47.700;7.924;2023-06-10T08:43:32;6.00;;;4.45;;
42614;SDS011;28754;47.700;7.924;2023-06-10T08:46:25;5.70;;;5.15;;
42614;SDS011;28754;47.700;7.924;2023-06-10T08:49:14;5.97;;;5.38;;
42614;SDS011;28754;47.700;7.924;2023-06-10T08:52:08;6.82;;;5.60;;
42614;SDS011;28754;47.700;7.924;2023-06-10T08:55:13;8.45;;;5.20;;
42614;SDS011;28754;47.700;7.924;2023-06-10T08:58:05;5.10;;;4.47;;
42614;SDS011;28754;47.700;7.924;2023-06-10T09:00:52;6.65;;;5.10;;
42614;SDS011;28754;47.700;7.924;2023-06-10T09:03:40;6.72;;;5.28;;
42614;SDS011;28754;47.700;7.924;2023-06-10T09:06:28;7.55;;;5.93;;
42614;SDS011;28754;47.700;7.924;2023-06-10T09:09:15;5.93;;;5.25;;
42614;SDS011;28754;47.700;7.924;2023-06-10T09:12:01;7.40;;;5.38;;
42614;SDS011;28754;47.700;7.924;2023-06-10T09:14:49;6.25;;;5.47;;
42614;SDS011;28754;47.700;7.924;2023-06-10T09:17:36;6.13;;;5.43;;
42614;SDS011;28754;47.700;7.924;2023-06-10T09:20:23;6.95;;;5.38;;
42614;SDS011;28754;47.700;7.924;2023-06-10T09:23:10;6.40;;;5.72;;
42614;SDS011;28754;47.700;7.924;2023-06-10T09:25:58;6.18;;;4.93;;
42614;SDS011;28754;47.700;7.924;2023-06-10T09:28:48;6.95;;;5.45;;
42614;SDS011;28754;47.700;7.924;2023-06-10T09:31:38;7.68;;;5.07;;
42614;SDS011;28754;47.700;7.924;2023-06-10T09:34:26;6.55;;;5.35;;
42614;SDS011;28754;47.700;7.924;2023-06-10T09:37:21;6.25;;;4.97;;
42614;SDS011;28754;47.700;7.924;2023-06-10T09:40:09;6.50;;;5.07;;
42614;SDS011;28754;47.700;7.924;2023-06-10T09:43:00;6.18;;;5.20;;
42614;SDS011;28754;47.700;7.924;2023-06-10T09:45:47;9.07;;;7.85;;
42614;SDS011;28754;47.700;7.924;2023-06-10T09:48:42;9.45;;;6.40;;
42614;SDS011;28754;47.700;7.924;2023-06-10T09:51:30;7.40;;;5.57;;
42614;SDS011;28754;47.700;7.924;2023-06-10T09:54:17;10.48;;;6.32;;
42614;SDS011;28754;47.700;7.924;2023-06-10T09:57:07;6.38;;;5.13;;
42614;SDS011;28754;47.700;7.924;2023-06-10T09:59:57;5.93;;;5.25;;
42614;SDS011;28754;47.700;7.924;2023-06-10T10:02:50;6.22;;;5.50;;
42614;SDS011;28754;47.700;7.924;2023-06-10T10:05:39;7.43;;;5.65;;
42614;SDS011;28754;47.700;7.924;2023-06-10T10:08:26;7.07;;;5.53;;
42614;SDS011;28754;47.700;7.924;2023-06-10T10:11:14;8.40;;;5.10;;
42614;SDS011;28754;47.700;7.924;2023-06-10T10:14:05;10.43;;;6.45;;
42614;SDS011;28754;47.700;7.924;2023-06-10T10:16:53;7.93;;;5.25;;
42614;SDS011;28754;47.700;7.924;2023-06-10T10:19:48;7.45;;;5.28;;
42614;SDS011;28754;47.700;7.924;2023-06-10T10:22:40;8.30;;;6.22;;
42614;SDS011;28754;47.700;7.924;2023-06-10T10:25:34;5.88;;;5.10;;
42614;SDS011;28754;47.700;7.924;2023-06-10T10:28:29;8.35;;;5.68;;
42614;SDS011;28754;47.700;7.924;2023-06-10T10:31:30;6.72;;;5.82;;
42614;SDS011;28754;47.700;7.924;2023-06-10T10:34:29;5.45;;;4.88;;
42614;SDS011;28754;47.700;7.924;2023-06-10T10:37:26;9.25;;;6.07;;
42614;SDS011;28754;47.700;7.924;2023-06-10T10:40:14;6.78;;;6.00;;
42614;SDS011;28754;47.700;7.924;2023-06-10T10:43:01;8.98;;;6.47;;
42614;SDS011;28754;47.700;7.924;2023-06-10T10:45:59;9.02;;;6.32;;
42614;SDS011;28754;47.700;7.924;2023-06-10T10:48:54;7.25;;;6.07;;
42614;SDS011;28754;47.700;7.924;2023-06-10T10:51:54;6.80;;;6.10;;
42614;SDS011;28754;47.700;7.924;2023-06-10T10:54:45;8.38;;;6.20;;
42614;SDS011;28754;47.700;7.924;2023-06-10T10:57:34;10.98;;;6.50;;
42614;SDS011;28754;47.700;7.924;2023-06-10T11:00:32;6.95;;;5.82;;
42614;SDS011;28754;47.700;7.924;2023-06-10T11:03:21;5.65;;;5.05;;
42614;SDS011;28754;47.700;7.924;2023-06-10T11:06:11;8.13;;;5.60;;
42614;SDS011;28754;47.700;7.924;2023-06-10T11:09:00;7.88;;;5.47;;
42614;SDS011;28754;47.700;7.924;2023-06-10T11:12:14;7.03;;;5.60;;
42614;SDS011;28754;47.700;7.924;2023-06-10T11:15:10;6.40;;;5.18;;
42614;SDS011;28754;47.700;7.924;2023-06-10T11:18:09;5.97;;;5.25;;
42614;SDS011;28754;47.700;7.924;2023-06-10T11:21:00;8.32;;;5.82;;
42614;SDS011;28754;47.700;7.924;2023-06-10T11:23:50;6.78;;;5.60;;
42614;SDS011;28754;47.700;7.924;2023-06-10T11:26:43;8.63;;;5.72;;
42614;SDS011;28754;47.700;7.924;2023-06-10T11:29:30;7.22;;;4.93;;
42614;SDS011;28754;47.700;7.924;2023-06-10T11:32:17;6.93;;;6.18;;
42614;SDS011;28754;47.700;7.924;2023-06-10T11:35:04;6.13;;;4.95;;
42614;SDS011;28754;47.700;7.924;2023-06-10T11:37:53;6.70;;;6.00;;
42614;SDS011;28754;47.700;7.924;2023-06-10T11:40:45;7.65;;;6.00;;
42614;SDS011;28754;47.700;7.924;2023-06-10T11:43:35;8.98;;;5.57;;
42614;SDS011;28754;47.700;7.924;2023-06-10T11:46:23;7.03;;;4.80;;
42614;SDS011;28754;47.700;7.924;2023-06-10T11:49:13;5.35;;;4.82;;
42614;SDS011;28754;47.700;7.924;2023-06-10T11:52:00;5.63;;;5.03;;
42614;SDS011;28754;47.700;7.924;2023-06-10T11:54:54;5.88;;;5.28;;
42614;SDS011;28754;47.700;7.924;2023-06-10T11:57:41;7.72;;;5.80;;
42614;SDS011;28754;47.700;7.924;2023-06-10T12:00:28;9.18;;;6.20;;
42614;SDS011;28754;47.700;7.924;2023-06-10T12:03:15;6.40;;;5.55;;
42614;SDS011;28754;47.700;7.924;2023-06-10T12:06:06;5.70;;;5.10;;
42614;SDS011;28754;47.700;7.924;2023-06-10T12:08:53;8.55;;;5.32;;
42614;SDS011;28754;47.700;7.924;2023-06-10T12:11:42;6.13;;;4.93;;
42614;SDS011;28754;47.700;7.924;2023-06-10T12:17:43;6.38;;;5.43;;
42614;SDS011;28754;47.700;7.924;2023-06-10T12:20:30;6.60;;;4.47;;
42614;SDS011;28754;47.700;7.924;2023-06-10T12:23:22;6.18;;;5.45;;
42614;SDS011;28754;47.700;7.924;2023-06-10T12:26:08;6.97;;;5.55;;
42614;SDS011;28754;47.700;7.924;2023-06-10T12:28:55;6.32;;;4.78;;
42614;SDS011;28754;47.700;7.924;2023-06-10T12:31:58;6.57;;;5.18;;
42614;SDS011;28754;47.700;7.924;2023-06-10T12:34:51;5.57;;;5.00;;
42614;SDS011;28754;47.700;7.924;2023-06-10T12:37:59;6.63;;;5.22;;
42614;SDS011;28754;47.700;7.924;2023-06-10T12:40:48;4.95;;;4.45;;
42614;SDS011;28754;47.700;7.924;2023-06-10T12:43:34;6.93;;;4.72;;
42614;SDS011;28754;47.700;7.924;2023-06-10T12:46:21;11.02;;;4.72;;
42614;SDS011;28754;47.700;7.924;2023-06-10T12:49:18;5.75;;;5.15;;
42614;SDS011;28754;47.700;7.924;2023-06-10T12:52:06;6.15;;;4.90;;
42614;SDS011;28754;47.700;7.924;2023-06-10T12:54:53;8.35;;;5.15;;
42614;SDS011;28754;47.700;7.924;2023-06-10T12:57:47;7.65;;;4.97;;
42614;SDS011;28754;47.700;7.924;2023-06-10T13:00:35;5.72;;;5.15;;
42614;SDS011;28754;47.700;7.924;2023-06-10T13:03:22;5.38;;;4.78;;
42614;SDS011;28754;47.700;7.924;2023-06-10T13:06:08;4.47;;;3.97;;
42614;SDS011;28754;47.700;7.924;2023-06-10T13:08:55;8.43;;;5.75;;
42614;SDS011;28754;47.700;7.924;2023-06-10T13:11:42;6.85;;;5.03;;
42614;SDS011;28754;47.700;7.924;2023-06-10T13:14:29;7.65;;;5.35;;
42614;SDS011;28754;47.700;7.924;2023-06-10T13:17:15;5.20;;;4.70;;
42614;SDS011;28754;47.700;7.924;2023-06-10T13:20:06;5.53;;;4.72;;
42614;SDS011;28754;47.700;7.924;2023-06-10T13:22:53;5.35;;;4.85;;
42614;SDS011;28754;47.700;7.924;2023-06-10T13:25:40;8.30;;;5.18;;
42614;SDS011;28754;47.700;7.924;2023-06-10T13:28:27;7.85;;;5.15;;
42614;SDS011;28754;47.700;7.924;2023-06-10T13:31:14;8.82;;;5.32;;
42614;SDS011;28754;47.700;7.924;2023-06-10T13:34:01;8.85;;;5.45;;
42614;SDS011;28754;47.700;7.924;2023-06-10T13:36:47;8.07;;;5.72;;
42614;SDS011;28754;47.700;7.924;2023-06-10T13:39:34;6.97;;;4.95;;
42614;SDS011;28754;47.700;7.924;2023-06-10T13:42:21;6.53;;;5.38;;
42614;SDS011;28754;47.700;7.924;2023-06-10T13:45:07;5.72;;;5.13;;
42614;SDS011;28754;47.700;7.924;2023-06-10T13:47:55;6.30;;;5.47;;
42614;SDS011;28754;47.700;7.924;2023-06-10T13:50:42;6.78;;;5.55;;
42614;SDS011;28754;47.700;7.924;2023-06-10T13:53:31;7.20;;;5.55;;
42614;SDS011;28754;47.700;7.924;2023-06-10T13:56:18;5.60;;;5.00;;
42614;SDS011;28754;47.700;7.924;2023-06-10T13:59:05;8.65;;;5.15;;
42614;SDS011;28754;47.700;7.924;2023-06-10T14:01:51;7.40;;;5.22;;
42614;SDS011;28754;47.700;7.924;2023-06-10T14:04:38;5.97;;;5.28;;
42614;SDS011;28754;47.700;7.924;2023-06-10T14:07:25;5.15;;;4.60;;
42614;SDS011;28754;47.700;7.924;2023-06-10T14:10:12;5.82;;;4.65;;
42614;SDS011;28754;47.700;7.924;2023-06-10T14:12:58;5.32;;;4.68;;
42614;SDS011;28754;47.700;7.924;2023-06-10T14:15:46;5.90;;;4.70;;
42614;SDS011;28754;47.700;7.924;2023-06-10T14:18:33;12.25;;;5.85;;
42614;SDS011;28754;47.700;7.924;2023-06-10T14:21:19;12.82;;;5.25;;
42614;SDS011;28754;47.700;7.924;2023-06-10T14:24:06;15.68;;;5.85;;
42614;SDS011;28754;47.700;7.924;2023-06-10T14:26:53;5.97;;;4.93;;
42614;SDS011;28754;47.700;7.924;2023-06-10T14:29:40;7.50;;;5.35;;
42614;SDS011;28754;47.700;7.924;2023-06-10T14:32:26;6.90;;;5.30;;
42614;SDS011;28754;47.700;7.924;2023-06-10T14:35:13;6.97;;;5.43;;
42614;SDS011;28754;47.700;7.924;2023-06-10T14:38:00;5.13;;;4.63;;
42614;SDS011;28754;47.700;7.924;2023-06-10T14:40:47;5.35;;;4.85;;
42614;SDS011;28754;47.700;7.924;2023-06-10T14:43:33;8.23;;;5.38;;
42614;SDS011;28754;47.700;7.924;2023-06-10T14:46:20;6.20;;;5.15;;
42614;SDS011;28754;47.700;7.924;2023-06-10T14:49:07;7.60;;;5.13;;
42614;SDS011;28754;47.700;7.924;2023-06-10T14:51:54;8.52;;;4.93;;
42614;SDS011;28754;47.700;7.924;2023-06-10T14:54:40;5.65;;;4.85;;
42614;SDS011;28754;47.700;7.924;2023-06-10T14:57:27;5.75;;;4.60;;
42614;SDS011;28754;47.700;7.924;2023-06-10T15:00:14;5.82;;;5.22;;
42614;SDS011;28754;47.700;7.924;2023-06-10T15:03:02;6.00;;;4.65;;
42614;SDS011;28754;47.700;7.924;2023-06-10T15:05:49;5.63;;;4.63;;
42614;SDS011;28754;47.700;7.924;2023-06-10T15:08:36;5.95;;;4.95;;
42614;SDS011;28754;47.700;7.924;2023-06-10T15:11:23;6.57;;;4.68;;
42614;SDS011;28754;47.700;7.924;2023-06-10T15:14:09;5.00;;;4.32;;
42614;SDS011;28754;47.700;7.924;2023-06-10T15:16:56;6.70;;;4.10;;
42614;SDS011;28754;47.700;7.924;2023-06-10T15:19:45;6.85;;;4.70;;
42614;SDS011;28754;47.700;7.924;2023-06-10T15:22:31;6.57;;;4.70;;
42614;SDS011;28754;47.700;7.924;2023-06-10T15:25:18;6.07;;;4.93;;
42614;SDS011;28754;47.700;7.924;2023-06-10T15:28:05;5.43;;;4.35;;
42614;SDS011;28754;47.700;7.924;2023-06-10T15:30:51;5.45;;;4.47;;
42614;SDS011;28754;47.700;7.924;2023-06-10T15:33:38;6.15;;;4.55;;
42614;SDS011;28754;47.700;7.924;2023-06-10T15:36:25;6.80;;;4.70;;
42614;SDS011;28754;47.700;7.924;2023-06-10T15:39:12;7.78;;;4.68;;
42614;SDS011;28754;47.700;7.924;2023-06-10T15:41:59;5.55;;;4.90;;
42614;SDS011;28754;47.700;7.924;2023-06-10T15:44:46;8.27;;;5.00;;
42614;SDS011;28754;47.700;7.924;2023-06-10T15:47:33;5.47;;;4.70;;
42614;SDS011;28754;47.700;7.924;2023-06-10T15:50:19;5.53;;;4.97;;
42614;SDS011;28754;47.700;7.924;2023-06-10T15:53:06;5.40;;;4.90;;
42614;SDS011;28754;47.700;7.924;2023-06-10T15:55:52;6.72;;;5.03;;
42614;SDS011;28754;47.700;7.924;2023-06-10T15:58:39;5.13;;;4.47;;
42614;SDS011;28754;47.700;7.924;2023-06-10T16:01:27;6.18;;;5.00;;
42614;SDS011;28754;47.700;7.924;2023-06-10T16:04:13;5.88;;;5.03;;
42614;SDS011;28754;47.700;7.924;2023-06-10T16:07:00;6.88;;;4.22;;
42614;SDS011;28754;47.700;7.924;2023-06-10T16:09:47;5.22;;;4.72;;
42614;SDS011;28754;47.700;7.924;2023-06-10T16:12:33;4.70;;;4.10;;
42614;SDS011;28754;47.700;7.924;2023-06-10T16:15:20;7.30;;;4.90;;
42614;SDS011;28754;47.700;7.924;2023-06-10T16:18:07;7.25;;;5.07;;
42614;SDS011;28754;47.700;7.924;2023-06-10T16:20:53;5.80;;;4.68;;
42614;SDS011;28754;47.700;7.924;2023-06-10T16:23:40;5.10;;;4.38;;
42614;SDS011;28754;47.700;7.924;2023-06-10T16:26:27;4.63;;;4.00;;
42614;SDS011;28754;47.700;7.924;2023-06-10T16:29:14;7.35;;;5.35;;
42614;SDS011;28754;47.700;7.924;2023-06-10T16:32:02;5.80;;;4.70;;
42614;SDS011;28754;47.700;7.924;2023-06-10T16:34:48;6.35;;;4.57;;
42614;SDS011;28754;47.700;7.924;2023-06-10T16:37:35;6.05;;;4.90;;
42614;SDS011;28754;47.700;7.924;2023-06-10T16:40:22;7.32;;;5.15;;
42614;SDS011;28754;47.700;7.924;2023-06-10T16:43:09;6.30;;;4.90;;
42614;SDS011;28754;47.700;7.924;2023-06-10T16:45:55;5.78;;;4.82;;
42614;SDS011;28754;47.700;7.924;2023-06-10T16:48:42;5.07;;;4.35;;
42614;SDS011;28754;47.700;7.924;2023-06-10T16:51:30;6.20;;;4.13;;
42614;SDS011;28754;47.700;7.924;2023-06-10T16:54:17;12.52;;;4.97;;
42614;SDS011;28754;47.700;7.924;2023-06-10T16:57:04;5.82;;;4.72;;
42614;SDS011;28754;47.700;7.924;2023-06-10T16:59:51;5.80;;;4.82;;
42614;SDS011;28754;47.700;7.924;2023-06-10T17:02:38;5.85;;;4.38;;